Time;durP1;ratioP1;P1;durP2;ratioP2;P2;SDS_P1;SDS_P2;PMS_P1;PMS_P2;Temp;Humidity;BMP_temperature;BMP_pressure;BME280_temperature;BME280_humidity;BME280_pressure;Samples;Min_cycle;Max_cycle;Signal;HPM_P1;HPM_P2
2021/01/11 00:02:05;;;;;;;41.53;37.50;;;-2.90;92.00;;;;;;5018791;28;20221;-77
2021/01/11 00:04:34;;;;;;;41.50;37.67;;;-2.90;91.40;;;;;;5017565;28;20699;-76
2021/01/11 00:07:00;;;;;;;41.97;37.80;;;-2.90;91.00;;;;;;5017298;28;20218;-76
2021/01/11 00:09:27;;;;;;;38.00;34.60;;;-2.90;90.50;;;;;;5016063;28;20263;-76
2021/01/11 00:11:57;;;;;;;41.30;37.53;;;-3.00;90.10;;;;;;5031596;28;20217;-77
2021/01/11 00:14:24;;;;;;;40.85;36.75;;;-2.90;90.00;;;;;;5035570;28;20189;-77
2021/01/11 00:16:52;;;;;;;39.85;35.60;;;-2.90;89.20;;;;;;5026400;28;20213;-76
2021/01/11 00:19:18;;;;;;;38.78;34.92;;;-2.90;88.90;;;;;;5035395;28;20655;-76
2021/01/11 00:21:46;;;;;;;1999.90;640.20;;;-3.00;92.00;;;;;;5033945;28;20220;-76
2021/01/11 00:24:19;;;;;;;38.88;35.10;;;-3.00;90.90;;;;;;5015654;28;20218;-77
2021/01/11 00:26:49;;;;;;;41.38;36.97;;;-3.10;94.80;;;;;;5025173;28;20695;-77
2021/01/11 00:29:16;;;;;;;40.53;36.40;;;-3.10;92.90;;;;;;5035277;28;20204;-77
2021/01/11 00:31:42;;;;;;;39.80;35.67;;;-3.10;92.20;;;;;;5034355;28;20249;-77
2021/01/11 00:34:09;;;;;;;39.05;35.38;;;-3.20;91.40;;;;;;5033817;28;20194;-77
2021/01/11 00:36:36;;;;;;;40.10;36.10;;;-3.10;91.50;;;;;;5027469;28;20220;-76
2021/01/11 00:39:03;;;;;;;40.85;36.58;;;-3.10;90.50;;;;;;5015128;28;20205;-77
2021/01/11 00:41:30;;;;;;;38.78;35.10;;;-3.20;90.10;;;;;;5014981;28;20255;-77
2021/01/11 00:43:56;;;;;;;37.70;34.38;;;-3.20;90.00;;;;;;5031468;28;20212;-76
2021/01/11 00:46:23;;;;;;;39.78;35.80;;;-3.20;89.50;;;;;;5034756;28;20217;-76
2021/01/11 00:48:50;;;;;;;40.60;36.88;;;-3.20;89.30;;;;;;5034840;28;20201;-77
2021/01/11 00:51:17;;;;;;;39.00;35.17;;;-3.30;89.10;;;;;;5024280;28;20194;-77
2021/01/11 00:53:44;;;;;;;39.97;36.30;;;-3.30;89.10;;;;;;5014753;28;20201;-77
2021/01/11 00:56:12;;;;;;;39.63;35.78;;;-3.30;89.30;;;;;;5014667;28;20218;-77
2021/01/11 00:58:38;;;;;;;40.10;36.28;;;-3.40;89.30;;;;;;5025671;28;20242;-77
2021/01/11 01:01:05;;;;;;;41.03;36.97;;;-3.40;89.50;;;;;;5032937;28;20683;-77
2021/01/11 01:03:31;;;;;;;40.15;36.47;;;-3.40;89.10;;;;;;5034576;28;20200;-77
2021/01/11 01:05:58;;;;;;;42.33;38.33;;;-3.50;88.90;;;;;;5034387;28;20223;-77
2021/01/11 01:08:25;;;;;;;43.00;38.80;;;-3.50;89.10;;;;;;5025011;28;20210;-77
2021/01/11 01:10:51;;;;;;;39.97;36.35;;;-3.50;89.10;;;;;;5014717;28;20204;-77
2021/01/11 01:13:18;;;;;;;40.58;36.72;;;-3.60;89.10;;;;;;5014813;28;20198;-77
2021/01/11 01:15:44;;;;;;;39.90;36.22;;;-3.70;89.50;;;;;;5014313;28;20190;-76
2021/01/11 01:18:10;;;;;;;40.20;36.50;;;-3.60;89.30;;;;;;5021192;28;20606;-77
2021/01/11 01:20:37;;;;;;;40.47;36.63;;;-3.50;89.00;;;;;;5032545;28;20197;-77
2021/01/11 01:23:03;;;;;;;40.75;37.08;;;-3.60;88.90;;;;;;5014405;28;20202;-77
2021/01/11 01:25:30;;;;;;;40.50;36.42;;;-3.50;88.90;;;;;;5014345;28;20224;-77
2021/01/11 01:27:57;;;;;;;40.55;36.83;;;-3.60;88.80;;;;;;5019026;28;20619;-77
2021/01/11 01:30:23;;;;;;;39.60;36.00;;;-3.70;88.70;;;;;;5033989;28;20219;-77
2021/01/11 01:32:49;;;;;;;39.53;35.72;;;-3.80;89.00;;;;;;5034053;28;20284;-77
2021/01/11 01:35:16;;;;;;;38.95;35.03;;;-3.80;89.00;;;;;;5034038;28;20554;-77
2021/01/11 01:37:42;;;;;;;37.45;34.25;;;-3.80;88.60;;;;;;5030623;28;20217;-76
2021/01/11 01:40:09;;;;;;;38.45;34.88;;;-3.80;88.70;;;;;;5014083;28;20189;-77
2021/01/11 01:42:37;;;;;;;41.22;37.15;;;-3.80;88.70;;;;;;5014016;28;20197;-77
2021/01/11 01:45:05;;;;;;;459.38;93.78;;;-3.80;91.80;;;;;;5013950;28;20308;-76
2021/01/11 01:47:33;;;;;;;1418.90;241.25;;;-3.80;97.00;;;;;;5014695;28;20628;-75
2021/01/11 01:50:01;;;;;;;38.60;34.80;;;-3.80;97.70;;;;;;5033158;28;20549;-77
2021/01/11 01:52:27;;;;;;;38.25;34.45;;;-3.80;96.40;;;;;;5023842;28;20190;-76
2021/01/11 01:54:54;;;;;;;38.65;34.92;;;-3.80;95.30;;;;;;5022523;28;20201;-77
2021/01/11 01:57:20;;;;;;;37.63;34.35;;;-3.80;93.90;;;;;;5033540;28;20278;-77
2021/01/11 01:59:49;;;;;;;38.97;35.08;;;-3.90;92.30;;;;;;5033377;28;20208;-77
2021/01/11 02:02:18;;;;;;;39.53;35.30;;;-4.00;91.80;;;;;;5033499;28;20193;-77
2021/01/11 02:04:45;;;;;;;37.60;34.33;;;-4.00;91.60;;;;;;5016742;28;20217;-77
2021/01/11 02:07:19;;;;;;;36.30;32.97;;;-4.00;91.50;;;;;;5013362;28;20233;-77
2021/01/11 02:09:55;;;;;;;37.53;34.00;;;-3.90;91.20;;;;;;5013589;28;20259;-76
2021/01/11 02:12:27;;;;;;;38.10;34.30;;;-3.80;90.80;;;;;;5013605;28;20216;-77
2021/01/11 02:15:05;;;;;;;38.83;35.33;;;-3.90;90.30;;;;;;5030498;28;20621;-77
2021/01/11 02:17:37;;;;;;;38.70;35.25;;;-3.80;89.80;;;;;;5033083;28;20247;-77
2021/01/11 02:20:37;;;;;;;38.42;34.95;;;-3.90;89.30;;;;;;5032507;28;20197;-77
2021/01/11 02:23:28;;;;;;;38.00;34.40;;;-3.80;88.90;;;;;;5031300;28;20197;-76
2021/01/11 02:26:02;;;;;;;37.15;33.85;;;-4.00;88.30;;;;;;5032815;28;20221;-77
2021/01/11 02:28:44;;;;;;;38.75;35.10;;;-4.00;88.20;;;;;;5033103;28;20725;-77
2021/01/11 02:31:14;;;;;;;1455.43;247.60;;;-4.00;88.00;;;;;;5032285;28;20598;-77
2021/01/11 02:33:41;;;;;;;1999.90;883.35;;;-4.00;94.70;;;;;;5033043;28;20227;-76
2021/01/11 02:36:09;;;;;;;40.50;36.42;;;-4.00;99.20;;;;;;5032645;28;20277;-77
2021/01/11 02:38:37;;;;;;;39.20;35.05;;;-4.00;98.60;;;;;;5031206;28;20204;-77
2021/01/11 02:41:04;;;;;;;35.95;32.35;;;-4.00;98.80;;;;;;5032077;28;20211;-77
2021/01/11 02:43:30;;;;;;;36.30;32.80;;;-4.10;98.00;;;;;;5032765;28;20607;-77
2021/01/11 02:45:57;;;;;;;36.53;33.22;;;-4.10;97.20;;;;;;5032592;28;20694;-77
2021/01/11 02:48:27;;;;;;;37.30;33.72;;;-4.10;96.10;;;;;;5032208;28;20223;-77
2021/01/11 02:51:18;;;;;;;80.60;37.97;;;-4.10;95.20;;;;;;5016211;28;20202;-77
2021/01/11 02:53:53;;;;;;;36.20;32.78;;;-4.10;94.70;;;;;;5032352;28;20307;-77
2021/01/11 02:56:24;;;;;;;36.08;32.47;;;-4.10;95.20;;;;;;5032158;28;20572;-77
2021/01/11 02:59:19;;;;;;;37.83;34.22;;;-4.20;93.40;;;;;;5032114;28;20207;-77
2021/01/11 03:01:50;;;;;;;37.92;34.17;;;-4.20;92.70;;;;;;4997069;28;20201;-77
2021/01/11 03:04:22;;;;;;;762.90;147.40;;;-4.20;92.50;;;;;;5012853;28;20204;-76
2021/01/11 03:06:56;;;;;;;38.78;34.63;;;-4.30;95.80;;;;;;5014965;28;20786;-77
2021/01/11 03:09:23;;;;;;;84.28;42.03;;;-4.30;96.40;;;;;;5032431;28;20213;-77
2021/01/11 03:11:49;;;;;;;304.35;66.18;;;-4.30;97.10;;;;;;5014137;28;20197;-77
2021/01/11 03:14:16;;;;;;;35.28;31.88;;;-4.20;96.00;;;;;;5012958;28;20663;-77
2021/01/11 03:16:42;;;;;;;37.72;34.13;;;-4.20;94.80;;;;;;5012391;28;20228;-77
2021/01/11 03:19:08;;;;;;;37.13;33.63;;;-4.20;93.60;;;;;;5012740;28;20224;-77
2021/01/11 03:21:36;;;;;;;35.55;32.38;;;-4.30;92.70;;;;;;5028116;28;20201;-76
2021/01/11 03:24:03;;;;;;;37.83;34.35;;;-4.40;91.80;;;;;;5032413;28;20701;-77
2021/01/11 03:26:29;;;;;;;37.13;33.80;;;-4.40;91.50;;;;;;5031956;28;20224;-77
2021/01/11 03:28:56;;;;;;;37.35;33.83;;;-4.50;90.60;;;;;;5032390;28;20284;-76
2021/01/11 03:31:22;;;;;;;108.50;42.25;;;-4.50;90.20;;;;;;5032295;28;20597;-77
2021/01/11 03:33:49;;;;;;;38.92;35.25;;;-4.50;89.90;;;;;;5013026;28;20238;-76
2021/01/11 03:36:16;;;;;;;36.30;32.95;;;-4.40;90.80;;;;;;5012416;28;20221;-77
2021/01/11 03:38:44;;;;;;;36.17;32.78;;;-4.40;91.90;;;;;;5012583;28;20552;-77
2021/01/11 03:41:10;;;;;;;37.35;33.80;;;-4.40;91.10;;;;;;5012601;28;20209;-76
2021/01/11 03:43:38;;;;;;;314.35;73.20;;;-4.40;90.40;;;;;;5029436;28;20219;-77
2021/01/11 03:46:05;;;;;;;1999.90;881.53;;;-4.40;95.80;;;;;;5031446;28;20224;-77
2021/01/11 03:48:31;;;;;;;36.70;32.85;;;-4.40;98.50;;;;;;5032197;28;20204;-76
2021/01/11 03:50:57;;;;;;;825.28;147.50;;;-4.30;99.40;;;;;;5032099;28;20281;-76
2021/01/11 03:53:24;;;;;;;1999.90;815.60;;;-4.30;99.90;;;;;;5016015;28;20202;-77
2021/01/11 03:55:51;;;;;;;49.67;36.90;;;-4.30;99.90;;;;;;5012268;28;20251;-77
2021/01/11 03:58:17;;;;;;;37.45;33.70;;;-4.40;99.90;;;;;;5012610;28;20212;-76
2021/01/11 04:00:44;;;;;;;40.63;36.45;;;-4.40;99.30;;;;;;5011970;28;20617;-77
2021/01/11 04:03:10;;;;;;;38.83;34.92;;;-4.40;98.40;;;;;;5025579;28;20194;-77
2021/01/11 04:05:36;;;;;;;38.92;35.13;;;-4.40;96.20;;;;;;5020769;28;20214;-77
2021/01/11 04:08:03;;;;;;;37.40;33.90;;;-4.40;96.40;;;;;;5012022;28;20214;-77
2021/01/11 04:10:29;;;;;;;39.25;35.55;;;-4.40;95.50;;;;;;5012415;28;20234;-77
2021/01/11 04:12:57;;;;;;;38.60;34.75;;;-4.40;95.40;;;;;;5025146;28;20193;-77
2021/01/11 04:15:23;;;;;;;1236.25;215.25;;;-4.40;94.70;;;;;;5035333;28;20186;-77
2021/01/11 04:17:50;;;;;;;586.38;96.47;;;-4.50;96.80;;;;;;5035185;28;20213;-77
2021/01/11 04:20:17;;;;;;;131.90;42.40;;;-4.50;98.50;;;;;;5035569;28;20239;-77
2021/01/11 04:22:44;;;;;;;39.25;35.35;;;-4.50;98.70;;;;;;5035312;28;20201;-77
2021/01/11 04:25:11;;;;;;;40.05;36.00;;;-4.40;97.30;;;;;;5034723;28;20557;-77
2021/01/11 04:27:38;;;;;;;39.85;35.85;;;-4.50;95.40;;;;;;5035232;28;20221;-77
2021/01/11 04:30:07;;;;;;;37.85;34.55;;;-4.50;94.20;;;;;;5035152;28;20203;-77
2021/01/11 04:32:34;;;;;;;39.08;35.47;;;-4.70;92.80;;;;;;5035391;28;20558;-77
2021/01/11 04:35:01;;;;;;;37.53;34.10;;;-4.70;92.40;;;;;;5035142;28;20251;-77
2021/01/11 04:37:28;;;;;;;39.10;35.10;;;-4.70;92.30;;;;;;5034448;28;20225;-77
2021/01/11 04:39:54;;;;;;;37.60;34.20;;;-4.70;92.80;;;;;;5024797;28;20196;-76
2021/01/11 04:42:28;;;;;;;37.47;34.22;;;-4.60;92.10;;;;;;5019153;28;20545;-77
2021/01/11 04:44:56;;;;;;;37.70;34.35;;;-4.60;90.90;;;;;;5015076;28;20278;-77
2021/01/11 04:47:24;;;;;;;39.17;35.78;;;-4.70;90.30;;;;;;5015988;28;20222;-76
2021/01/11 04:49:52;;;;;;;37.60;34.28;;;-4.70;90.30;;;;;;5031620;28;20205;-77
2021/01/11 04:52:20;;;;;;;36.70;33.50;;;-4.70;89.00;;;;;;5034914;28;20199;-77
2021/01/11 04:54:49;;;;;;;37.55;34.25;;;-4.80;88.80;;;;;;5034526;28;20191;-77
2021/01/11 04:57:16;;;;;;;36.78;33.58;;;-4.80;89.30;;;;;;5022869;28;20220;-77
2021/01/11 04:59:49;;;;;;;53.78;35.00;;;-4.80;88.90;;;;;;5014837;28;20794;-77
2021/01/11 05:02:21;;;;;;;39.42;35.63;;;-4.80;88.70;;;;;;5015368;28;20656;-77
2021/01/11 05:04:49;;;;;;;37.42;34.03;;;-4.80;88.70;;;;;;5015129;28;20698;-77
2021/01/11 05:07:17;;;;;;;37.28;33.92;;;-4.80;88.30;;;;;;5023294;28;20607;-77
2021/01/11 05:09:45;;;;;;;38.38;34.97;;;-4.80;88.70;;;;;;5034184;28;20201;-77
2021/01/11 05:12:13;;;;;;;36.70;33.50;;;-4.80;88.40;;;;;;5034709;28;20213;-77
2021/01/11 05:14:41;;;;;;;39.35;35.67;;;-4.90;88.10;;;;;;5034785;28;20216;-77
2021/01/11 05:17:10;;;;;;;37.67;33.97;;;-4.80;88.50;;;;;;5033874;28;20268;-77
2021/01/11 05:19:37;;;;;;;38.10;34.40;;;-4.90;88.30;;;;;;5034778;28;20239;-77
2021/01/11 05:22:09;;;;;;;40.00;36.35;;;-4.90;88.20;;;;;;5034249;28;20201;-77
2021/01/11 05:24:37;;;;;;;39.78;36.28;;;-4.90;88.20;;;;;;5034505;28;20221;-77
2021/01/11 05:27:06;;;;;;;39.47;35.83;;;-4.90;87.80;;;;;;5021065;28;20295;-77
2021/01/11 05:29:33;;;;;;;37.15;33.65;;;-4.90;87.50;;;;;;5034168;28;20656;-77
2021/01/11 05:32:02;;;;;;;40.53;36.38;;;-5.00;87.60;;;;;;5034498;28;20398;-77
2021/01/11 05:34:48;;;;;;;39.35;35.85;;;-5.00;88.60;;;;;;5034492;28;20205;-77
2021/01/11 05:37:40;;;;;;;38.55;34.85;;;-5.00;88.90;;;;;;5033510;28;20240;-77
2021/01/11 05:40:12;;;;;;;772.75;138.25;;;-5.00;92.10;;;;;;5019483;28;20279;-77
2021/01/11 05:42:40;;;;;;;126.13;47.25;;;-5.00;93.20;;;;;;5020026;28;20198;-77
2021/01/11 05:45:14;;;;;;;39.15;35.20;;;-4.90;93.60;;;;;;5030919;28;20213;-77
2021/01/11 05:47:57;;;;;;;38.15;34.25;;;-4.90;92.50;;;;;;5017908;28;20221;-78
2021/01/11 05:50:26;;;;;;;38.13;34.53;;;-4.90;91.00;;;;;;5013986;28;20251;-75
2021/01/11 05:52:54;;;;;;;38.25;34.67;;;-4.80;90.60;;;;;;5013947;28;20198;-75
2021/01/11 05:55:21;;;;;;;173.20;48.30;;;-4.80;90.30;;;;;;5029394;28;20196;-76
2021/01/11 05:57:59;;;;;;;37.80;34.08;;;-4.80;90.10;;;;;;5013677;28;20307;-75
2021/01/11 06:00:28;;;;;;;37.33;33.83;;;-4.80;91.90;;;;;;5013609;28;20556;-75
2021/01/11 06:02:56;;;;;;;1999.90;463.30;;;-4.70;91.00;;;;;;5013825;28;20194;-75
2021/01/11 06:05:23;;;;;;;42.90;38.67;;;-4.80;93.00;;;;;;5016687;28;20215;-75
2021/01/11 06:07:49;;;;;;;792.67;114.82;;;-4.90;92.30;;;;;;5032853;28;20226;-75
2021/01/11 06:10:18;;;;;;;1999.90;605.30;;;-4.80;93.60;;;;;;5033352;28;20325;-75
2021/01/11 06:12:45;;;;;;;1999.90;999.90;;;-4.80;99.80;;;;;;5033119;28;20204;-75
2021/01/11 06:15:13;;;;;;;1999.90;644.08;;;-4.60;99.90;;;;;;5017386;28;20228;-75
2021/01/11 06:17:41;;;;;;;1999.90;963.70;;;-4.60;99.90;;;;;;5013163;28;20626;-75
2021/01/11 06:20:10;;;;;;;1999.90;800.58;;;-4.60;99.90;;;;;;5013512;28;20207;-75
2021/01/11 06:23:01;;;;;;;1966.57;363.65;;;-4.60;99.90;;;;;;5032005;28;20199;-75
2021/01/11 06:25:39;;;;;;;1999.90;830.10;;;-4.70;99.90;;;;;;5032865;28;20294;-74
2021/01/11 06:28:07;;;;;;;1999.90;824.70;;;-4.70;99.90;;;;;;5033012;28;20322;-76
2021/01/11 06:30:36;;;;;;;523.20;95.38;;;-4.70;99.90;;;;;;5031397;28;20195;-76
2021/01/11 06:33:05;;;;;;;1999.90;977.15;;;-4.70;99.90;;;;;;5016132;28;20206;-76
2021/01/11 06:35:33;;;;;;;106.47;47.38;;;-4.70;99.90;;;;;;5012243;28;20194;-75
2021/01/11 06:38:20;;;;;;;136.73;53.22;;;-4.80;99.90;;;;;;5017534;28;20579;-75
2021/01/11 06:40:50;;;;;;;502.75;105.57;;;-4.80;99.90;;;;;;5013154;28;20293;-76
2021/01/11 06:43:18;;;;;;;1999.90;395.05;;;-4.70;99.90;;;;;;5013300;28;20200;-76
2021/01/11 06:45:45;;;;;;;1999.90;453.90;;;-4.70;99.90;;;;;;5012777;28;20228;-76
2021/01/11 06:48:17;;;;;;;1285.30;209.55;;;-4.70;99.90;;;;;;5014215;28;20225;-76
2021/01/11 06:50:45;;;;;;;43.90;36.33;;;-4.80;99.90;;;;;;5023163;28;20202;-76
2021/01/11 06:53:12;;;;;;;42.28;35.10;;;-4.70;99.90;;;;;;5032941;28;20562;-76
2021/01/11 06:55:39;;;;;;;44.08;37.30;;;-4.80;99.10;;;;;;5032382;28;20276;-76
2021/01/11 06:58:07;;;;;;;40.50;36.10;;;-4.80;99.20;;;;;;5032688;28;20299;-76
2021/01/11 07:00:36;;;;;;;1999.90;865.95;;;-4.80;98.30;;;;;;5024325;28;20208;-76
2021/01/11 07:03:05;;;;;;;1999.90;893.55;;;-4.90;99.30;;;;;;5014094;28;20212;-76
2021/01/11 07:05:45;;;;;;;360.38;82.55;;;-4.80;99.90;;;;;;5015409;28;20224;-76
2021/01/11 07:08:16;;;;;;;1999.90;778.80;;;-4.70;99.90;;;;;;5016519;28;20189;-76
2021/01/11 07:10:43;;;;;;;47.55;38.53;;;-4.60;99.90;;;;;;5032651;28;20196;-76
2021/01/11 07:13:26;;;;;;;1801.55;328.48;;;-4.60;99.90;;;;;;5032787;28;20197;-76
2021/01/11 07:16:10;;;;;;;1999.90;543.40;;;-4.60;99.90;;;;;;5032238;28;20209;-75
2021/01/11 07:18:53;;;;;;;45.55;38.00;;;-4.60;99.90;;;;;;5025494;28;20193;-76
2021/01/11 07:21:23;;;;;;;698.08;143.82;;;-4.60;99.90;;;;;;5017388;28;20280;-76
2021/01/11 07:23:50;;;;;;;1999.90;683.50;;;-4.50;99.90;;;;;;5032403;28;20263;-76
2021/01/11 07:26:18;;;;;;;550.70;104.93;;;-4.50;99.90;;;;;;5032182;28;20225;-76
2021/01/11 07:29:00;;;;;;;45.92;37.78;;;-4.50;99.90;;;;;;5024772;28;20195;-76
2021/01/11 07:31:28;;;;;;;1999.90;426.42;;;-4.50;99.90;;;;;;5026359;28;20584;-76
2021/01/11 07:34:03;;;;;;;103.60;43.63;;;-4.50;99.90;;;;;;5032294;28;20208;-76
2021/01/11 07:36:39;;;;;;;163.90;50.13;;;-4.40;99.90;;;;;;5032130;28;20615;-76
2021/01/11 07:39:10;;;;;;;46.10;37.65;;;-4.30;99.90;;;;;;5032311;28;20195;-76
2021/01/11 07:41:38;;;;;;;1441.45;310.92;;;-4.30;99.90;;;;;;5024749;28;20204;-76
2021/01/11 07:44:13;;;;;;;1077.70;174.68;;;-4.30;99.30;;;;;;5026189;28;20289;-77
2021/01/11 07:46:40;;;;;;;1303.50;248.77;;;-4.30;99.40;;;;;;5014335;28;20231;-76
2021/01/11 07:49:14;;;;;;;1999.90;653.95;;;-4.30;99.90;;;;;;5016315;28;20281;-76
2021/01/11 07:51:41;;;;;;;44.70;37.22;;;-4.20;99.90;;;;;;5016537;28;20295;-77
2021/01/11 07:54:13;;;;;;;42.25;36.58;;;-4.10;99.90;;;;;;5020892;28;20651;-76
2021/01/11 07:56:39;;;;;;;49.47;39.05;;;-4.00;99.90;;;;;;5028099;28;20210;-76
2021/01/11 07:59:07;;;;;;;42.53;38.22;;;-4.00;98.20;;;;;;5015871;28;20663;-76
2021/01/11 08:01:36;;;;;;;43.03;38.78;;;-3.90;97.40;;;;;;5028216;28;20561;-76
2021/01/11 08:04:03;;;;;;;41.67;37.50;;;-4.00;96.60;;;;;;5024379;28;20655;-76
2021/01/11 08:06:31;;;;;;;40.85;36.55;;;-4.00;96.50;;;;;;5035263;28;20225;-77
2021/01/11 08:09:01;;;;;;;446.27;87.78;;;-4.10;96.10;;;;;;5034828;28;20201;-76
2021/01/11 08:11:27;;;;;;;383.92;82.05;;;-4.10;95.00;;;;;;5035632;28;20628;-76
2021/01/11 08:14:05;;;;;;;41.58;37.17;;;-4.10;95.30;;;;;;5035778;28;20197;-76
2021/01/11 08:16:33;;;;;;;40.70;36.70;;;-4.10;94.60;;;;;;5035197;28;20216;-76
2021/01/11 08:19:04;;;;;;;42.20;37.78;;;-4.00;94.50;;;;;;5021315;28;20532;-76
2021/01/11 08:21:30;;;;;;;1302.40;266.55;;;-3.90;95.40;;;;;;5015656;28;20208;-76
2021/01/11 08:24:01;;;;;;;40.20;36.03;;;-3.80;95.70;;;;;;5015597;28;20259;-76
2021/01/11 08:26:28;;;;;;;48.85;37.28;;;-3.80;99.00;;;;;;5015279;28;20222;-76
2021/01/11 08:28:57;;;;;;;856.80;143.52;;;-3.70;98.80;;;;;;5016530;28;20588;-76
2021/01/11 08:31:23;;;;;;;42.40;37.80;;;-3.60;98.30;;;;;;5015313;28;20717;-77
2021/01/11 08:33:50;;;;;;;1160.25;194.85;;;-3.50;98.90;;;;;;5015458;28;20686;-76
2021/01/11 08:36:23;;;;;;;291.90;69.15;;;-3.40;97.60;;;;;;5018272;28;20753;-76
2021/01/11 08:39:13;;;;;;;39.00;34.80;;;-3.40;97.60;;;;;;5035193;28;20197;-76
2021/01/11 08:41:42;;;;;;;68.20;38.70;;;-3.30;99.10;;;;;;5015347;28;20294;-76
2021/01/11 08:44:27;;;;;;;38.08;32.72;;;-3.30;98.00;;;;;;5015213;28;20263;-76
2021/01/11 08:47:02;;;;;;;445.77;86.68;;;-3.20;97.70;;;;;;5015896;28;20583;-77
2021/01/11 08:49:29;;;;;;;52.45;37.25;;;-3.10;99.90;;;;;;5023352;28;20208;-77
2021/01/11 08:52:11;;;;;;;38.30;33.97;;;-3.00;99.70;;;;;;5034607;28;20586;-76
2021/01/11 08:54:38;;;;;;;1999.90;521.78;;;-3.00;98.30;;;;;;5034801;28;20287;-76
2021/01/11 08:57:12;;;;;;;1999.90;513.30;;;-2.80;98.70;;;;;;5034102;28;20627;-76
2021/01/11 08:59:47;;;;;;;39.45;35.20;;;-2.80;99.90;;;;;;5033246;28;20205;-77
2021/01/11 09:02:22;;;;;;;40.42;36.20;;;-2.80;98.10;;;;;;5018649;28;20650;-76
2021/01/11 09:04:48;;;;;;;38.92;34.90;;;-2.70;97.30;;;;;;5026451;28;20190;-76
2021/01/11 09:07:29;;;;;;;36.88;33.25;;;-2.60;96.40;;;;;;5016644;28;20629;-77
2021/01/11 09:09:56;;;;;;;1766.00;294.23;;;-2.60;95.20;;;;;;5014784;28;20213;-77
2021/01/11 09:12:34;;;;;;;38.42;33.50;;;-2.50;95.90;;;;;;5014656;28;20301;-77
2021/01/11 09:15:01;;;;;;;1872.18;331.90;;;-2.50;93.90;;;;;;5014898;28;20194;-76
2021/01/11 09:17:32;;;;;;;302.58;62.80;;;-2.40;93.00;;;;;;5034005;28;20223;-76
2021/01/11 09:20:04;;;;;;;1841.25;301.42;;;-2.30;93.10;;;;;;5026849;28;20225;-76
2021/01/11 09:22:33;;;;;;;38.90;34.72;;;-2.20;92.90;;;;;;5014516;28;20206;-76
2021/01/11 09:25:01;;;;;;;35.33;31.83;;;-2.20;92.50;;;;;;5015640;28;20222;-76
2021/01/11 09:27:28;;;;;;;37.67;33.72;;;-2.10;94.20;;;;;;5014243;28;20318;-77
2021/01/11 09:29:54;;;;;;;88.35;38.63;;;-2.00;92.00;;;;;;5032955;28;20288;-77
2021/01/11 09:32:21;;;;;;;37.15;33.35;;;-2.00;90.10;;;;;;5029113;28;20552;-77
2021/01/11 09:34:47;;;;;;;856.40;128.73;;;-2.00;90.70;;;;;;5014161;28;20202;-76
2021/01/11 09:37:14;;;;;;;54.65;36.70;;;-1.90;90.20;;;;;;5014055;28;20218;-76
2021/01/11 09:39:41;;;;;;;579.10;116.03;;;-1.80;90.80;;;;;;5016026;28;20202;-76
2021/01/11 09:42:08;;;;;;;35.10;31.40;;;-1.90;94.60;;;;;;5033911;28;20202;-77
2021/01/11 09:44:34;;;;;;;1999.90;477.63;;;-1.90;94.80;;;;;;5033885;28;20216;-77
2021/01/11 09:47:01;;;;;;;42.92;38.53;;;-1.70;94.70;;;;;;5032860;28;20667;-77
2021/01/11 09:49:28;;;;;;;39.03;35.17;;;-1.70;94.00;;;;;;5034500;28;20732;-77
2021/01/11 09:51:54;;;;;;;36.72;31.95;;;-1.60;93.90;;;;;;5032389;28;20190;-77
2021/01/11 09:54:21;;;;;;;36.00;32.38;;;-1.50;92.50;;;;;;5013694;28;20210;-77
2021/01/11 09:56:48;;;;;;;1999.90;622.70;;;-1.50;92.70;;;;;;5013560;28;20211;-77
2021/01/11 09:59:15;;;;;;;38.03;34.47;;;-1.40;93.90;;;;;;5029778;28;20652;-77
2021/01/11 10:01:43;;;;;;;38.33;34.15;;;-1.40;94.10;;;;;;5030896;28;20613;-77
2021/01/11 10:04:12;;;;;;;35.65;32.50;;;-1.30;91.90;;;;;;5013795;28;20260;-77
2021/01/11 10:06:42;;;;;;;35.83;32.50;;;-1.30;88.50;;;;;;5013429;28;20569;-77
2021/01/11 10:09:09;;;;;;;33.97;30.75;;;-1.20;90.20;;;;;;5027909;28;20213;-77
2021/01/11 10:11:36;;;;;;;37.67;34.30;;;-1.10;91.20;;;;;;5019326;28;20270;-77
2021/01/11 10:14:03;;;;;;;35.28;32.17;;;-1.10;87.30;;;;;;5016691;28;20205;-77
2021/01/11 10:16:30;;;;;;;38.05;34.45;;;-1.00;90.30;;;;;;5013284;28;20755;-77
2021/01/11 10:18:56;;;;;;;711.72;117.80;;;-1.10;85.10;;;;;;5013431;28;20202;-77
2021/01/11 10:21:23;;;;;;;67.40;37.22;;;-1.10;86.10;;;;;;5021400;28;20309;-76
2021/01/11 10:23:49;;;;;;;36.63;33.30;;;-1.00;93.40;;;;;;5033105;28;20204;-77
2021/01/11 10:26:20;;;;;;;32.00;29.08;;;-1.00;90.00;;;;;;5032834;28;20702;-77
2021/01/11 10:28:47;;;;;;;53.88;32.92;;;-0.90;87.30;;;;;;5021484;28;20257;-77
2021/01/11 10:31:15;;;;;;;332.92;64.43;;;-0.80;89.10;;;;;;5013405;28;20201;-77
2021/01/11 10:33:41;;;;;;;1448.47;253.40;;;-0.70;86.40;;;;;;5013800;28;20618;-77
2021/01/11 10:36:08;;;;;;;38.13;34.40;;;-0.70;90.00;;;;;;5013196;28;20213;-77
2021/01/11 10:38:35;;;;;;;35.88;32.53;;;-0.60;86.40;;;;;;5022378;28;20193;-77
2021/01/11 10:41:01;;;;;;;37.65;34.33;;;-0.50;83.40;;;;;;5032417;28;20203;-77
2021/01/11 10:43:29;;;;;;;36.95;33.67;;;-0.40;82.10;;;;;;5033018;28;20244;-77
2021/01/11 10:45:55;;;;;;;36.65;33.20;;;-0.50;81.20;;;;;;5032639;28;20309;-77
2021/01/11 10:48:22;;;;;;;36.00;32.65;;;-0.40;80.90;;;;;;5032573;28;20190;-77
2021/01/11 10:50:49;;;;;;;34.80;31.73;;;-0.30;79.60;;;;;;5032931;28;20262;-77
2021/01/11 10:53:15;;;;;;;38.78;35.50;;;-0.10;77.50;;;;;;5032427;28;20209;-77
2021/01/11 10:55:42;;;;;;;38.78;35.20;;;-0.10;77.20;;;;;;5012756;28;20195;-76
2021/01/11 10:58:08;;;;;;;39.38;35.88;;;-0.10;77.30;;;;;;5013924;28;20265;-77
2021/01/11 11:00:35;;;;;;;37.97;34.67;;;0.00;77.50;;;;;;5012921;28;20235;-77
2021/01/11 11:03:02;;;;;;;36.30;33.50;;;0.00;79.10;;;;;;5012972;28;20625;-77
2021/01/11 11:05:29;;;;;;;37.50;34.15;;;0.00;76.00;;;;;;5029946;28;20627;-77
2021/01/11 11:07:56;;;;;;;35.33;32.45;;;0.10;74.80;;;;;;5019830;28;20573;-77
2021/01/11 11:10:22;;;;;;;38.83;35.53;;;0.00;76.60;;;;;;5017353;28;20203;-77
2021/01/11 11:12:49;;;;;;;35.10;32.30;;;0.20;74.60;;;;;;5031601;28;20199;-77
2021/01/11 11:15:16;;;;;;;37.05;33.75;;;0.20;73.80;;;;;;5032749;28;20195;-77
2021/01/11 11:17:42;;;;;;;37.53;34.17;;;0.20;74.40;;;;;;5033158;28;20310;-77
2021/01/11 11:20:09;;;;;;;31.83;29.08;;;0.20;76.80;;;;;;5030993;28;20199;-77
2021/01/11 11:22:37;;;;;;;34.40;31.20;;;0.20;84.90;;;;;;5026220;28;20210;-77
2021/01/11 11:25:06;;;;;;;34.17;31.38;;;0.20;80.70;;;;;;5027130;28;20283;-77
2021/01/11 11:27:34;;;;;;;34.70;31.45;;;0.20;78.70;;;;;;5017658;28;20247;-77
2021/01/11 11:30:01;;;;;;;36.03;33.03;;;0.30;78.50;;;;;;5017213;28;20223;-77
2021/01/11 11:32:29;;;;;;;34.03;31.23;;;0.30;78.40;;;;;;5017684;28;20207;-77
2021/01/11 11:34:55;;;;;;;37.65;34.42;;;0.30;78.30;;;;;;5016619;28;20553;-77
2021/01/11 11:37:22;;;;;;;38.83;35.13;;;0.30;75.30;;;;;;5016330;28;20734;-77
2021/01/11 11:39:49;;;;;;;34.58;31.45;;;0.30;75.60;;;;;;5016520;28;20669;-77
2021/01/11 11:42:15;;;;;;;38.80;35.30;;;0.40;79.20;;;;;;5016910;28;20212;-77
2021/01/11 11:44:42;;;;;;;37.80;34.55;;;0.40;81.40;;;;;;5028781;28;20347;-77
2021/01/11 11:47:08;;;;;;;36.60;33.50;;;0.50;78.10;;;;;;5036458;28;20755;-77
2021/01/11 11:49:34;;;;;;;37.67;34.58;;;0.60;75.20;;;;;;5036158;28;20196;-77
2021/01/11 11:52:01;;;;;;;37.45;34.40;;;0.60;75.40;;;;;;5036137;28;20210;-77
2021/01/11 11:54:27;;;;;;;36.28;33.17;;;0.70;73.70;;;;;;5016325;28;20287;-77
2021/01/11 11:56:54;;;;;;;36.75;33.42;;;0.70;79.30;;;;;;5035845;28;20219;-77
2021/01/11 11:59:21;;;;;;;38.45;34.85;;;0.90;78.10;;;;;;5035793;28;20294;-77
2021/01/11 12:01:47;;;;;;;38.97;35.30;;;0.90;77.40;;;;;;5025068;28;20926;-77
2021/01/11 12:04:15;;;;;;;37.92;34.72;;;1.00;76.40;;;;;;5016343;28;20263;-77
2021/01/11 12:06:43;;;;;;;35.67;32.60;;;1.10;76.90;;;;;;5015639;28;20329;-77
2021/01/11 12:09:10;;;;;;;36.70;33.55;;;1.20;77.30;;;;;;5015820;28;20590;-77
2021/01/11 12:11:43;;;;;;;36.55;33.53;;;1.30;75.30;;;;;;5016120;28;20193;-77
2021/01/11 12:14:11;;;;;;;35.67;32.55;;;1.40;75.10;;;;;;5015960;28;20204;-77
2021/01/11 12:16:38;;;;;;;35.92;32.80;;;1.30;78.90;;;;;;5015661;28;20241;-77
2021/01/11 12:19:05;;;;;;;35.42;32.50;;;1.40;80.70;;;;;;5031385;28;20197;-77
2021/01/11 12:21:33;;;;;;;34.83;31.80;;;1.50;82.10;;;;;;5035380;28;20217;-77
2021/01/11 12:24:00;;;;;;;35.85;32.60;;;1.60;79.10;;;;;;5035912;28;20197;-77
2021/01/11 12:26:28;;;;;;;34.25;31.45;;;1.70;78.20;;;;;;5035370;28;20225;-77
2021/01/11 12:28:55;;;;;;;34.50;31.60;;;1.70;77.90;;;;;;5035747;28;20231;-77
2021/01/11 12:31:28;;;;;;;35.00;31.70;;;1.70;75.70;;;;;;5018130;28;20202;-77
2021/01/11 12:33:55;;;;;;;35.00;31.88;;;1.80;78.00;;;;;;5015990;28;20631;-77